Strona główna
METAR-TAF:

METAR-TAF

Lotnisko :

Lleida-Alguaire

Lleida, Hiszpania

Szerokość geograficzna: 41-43-40N, Długość geograficzna: 000-32-09E, wysokość: 350 m

Aktualna obserwacja pogody

Raport powstał 24 minut temu, godzina 23:30 UTC
Wiatr 6 kt od północny wschód
Temperatura 5°C
Wilgotność 93%
Ciśnienie 1021 hPa
Widzialność 10 km lub więcej
Brak chmur poniżej 1500 m i brak chmur cumulonimbus

METAR: LEDA 042330Z AUTO 05006KT CAVOK 05/04 Q1021

czas: 01:54 (23:54 UTC)


TAF: brakujący

Obserwacja i prognoza pogody dla ponad 4000 lotnisk (raport METAR i TAF).

Dostępne stacje oznaczono żółtymi i czerwonymi punktami na mapie.

Najedź kursorem aby zobaczyć nazwę stacji.

Kliknij aby zobaczyć obserwacje i prognozy pogody.

Aby zmienić mapę: kliknij na zielony przycisk z czarnym krzyżykiem, aby powiększyć; na zielony przycisk z myślnikiem, aby pomniejszyć; na zielone strzałki, aby przejść do map sąsiednich.


METAR-TAF: